sensor_id;sensor_type;location;lat;lon;timestamp;P1;durP1;ratioP1;P2;durP2;ratioP2
27839;SDS011;15207;42.182;24.308;2023-06-10T00:01:51;7.97;;;4.22;;
27839;SDS011;15207;42.182;24.308;2023-06-10T00:04:20;6.15;;;4.45;;
27839;SDS011;15207;42.182;24.308;2023-06-10T00:06:46;6.75;;;3.80;;
27839;SDS011;15207;42.182;24.308;2023-06-10T00:09:13;7.65;;;4.35;;
27839;SDS011;15207;42.182;24.308;2023-06-10T00:11:39;5.50;;;4.20;;
27839;SDS011;15207;42.182;24.308;2023-06-10T00:14:05;5.78;;;4.20;;
27839;SDS011;15207;42.182;24.308;2023-06-10T00:16:31;7.10;;;4.20;;
27839;SDS011;15207;42.182;24.308;2023-06-10T00:19:01;5.85;;;3.88;;
27839;SDS011;15207;42.182;24.308;2023-06-10T00:21:32;5.70;;;4.30;;
27839;SDS011;15207;42.182;24.308;2023-06-10T00:24:05;6.70;;;4.30;;
27839;SDS011;15207;42.182;24.308;2023-06-10T00:28:57;6.10;;;4.10;;
27839;SDS011;15207;42.182;24.308;2023-06-10T00:31:23;9.85;;;4.35;;
27839;SDS011;15207;42.182;24.308;2023-06-10T00:33:49;7.93;;;4.30;;
27839;SDS011;15207;42.182;24.308;2023-06-10T00:36:14;7.80;;;4.60;;
27839;SDS011;15207;42.182;24.308;2023-06-10T00:38:40;8.88;;;4.32;;
27839;SDS011;15207;42.182;24.308;2023-06-10T00:41:06;6.00;;;4.35;;
27839;SDS011;15207;42.182;24.308;2023-06-10T00:43:32;6.55;;;4.55;;
27839;SDS011;15207;42.182;24.308;2023-06-10T00:45:58;6.40;;;4.38;;
27839;SDS011;15207;42.182;24.308;2023-06-10T00:48:24;5.90;;;4.55;;
27839;SDS011;15207;42.182;24.308;2023-06-10T00:50:51;5.95;;;4.30;;
27839;SDS011;15207;42.182;24.308;2023-06-10T00:53:16;5.95;;;4.45;;
27839;SDS011;15207;42.182;24.308;2023-06-10T00:55:43;6.60;;;5.10;;
27839;SDS011;15207;42.182;24.308;2023-06-10T01:00:34;5.53;;;4.43;;
27839;SDS011;15207;42.182;24.308;2023-06-10T01:05:26;10.15;;;4.70;;
27839;SDS011;15207;42.182;24.308;2023-06-10T01:07:56;8.70;;;4.70;;
27839;SDS011;15207;42.182;24.308;2023-06-10T01:10:42;5.50;;;4.20;;
27839;SDS011;15207;42.182;24.308;2023-06-10T01:13:14;9.60;;;4.70;;
27839;SDS011;15207;42.182;24.308;2023-06-10T01:18:07;6.30;;;4.40;;
27839;SDS011;15207;42.182;24.308;2023-06-10T01:20:35;5.70;;;4.10;;
27839;SDS011;15207;42.182;24.308;2023-06-10T01:23:04;8.40;;;4.63;;
27839;SDS011;15207;42.182;24.308;2023-06-10T01:25:31;8.45;;;4.65;;
27839;SDS011;15207;42.182;24.308;2023-06-10T01:28:05;6.50;;;4.20;;
27839;SDS011;15207;42.182;24.308;2023-06-10T01:33:09;7.15;;;4.30;;
27839;SDS011;15207;42.182;24.308;2023-06-10T01:35:36;7.20;;;4.40;;
27839;SDS011;15207;42.182;24.308;2023-06-10T01:38:04;6.20;;;4.20;;
27839;SDS011;15207;42.182;24.308;2023-06-10T01:40:31;5.65;;;4.50;;
27839;SDS011;15207;42.182;24.308;2023-06-10T01:42:57;5.65;;;4.00;;
27839;SDS011;15207;42.182;24.308;2023-06-10T01:45:23;8.70;;;4.07;;
27839;SDS011;15207;42.182;24.308;2023-06-10T01:47:49;7.90;;;4.57;;
27839;SDS011;15207;42.182;24.308;2023-06-10T01:50:14;6.10;;;4.10;;
27839;SDS011;15207;42.182;24.308;2023-06-10T01:52:41;7.90;;;4.50;;
27839;SDS011;15207;42.182;24.308;2023-06-10T01:55:07;6.60;;;4.10;;
27839;SDS011;15207;42.182;24.308;2023-06-10T01:57:33;6.15;;;4.50;;
27839;SDS011;15207;42.182;24.308;2023-06-10T01:59:58;13.35;;;4.90;;
27839;SDS011;15207;42.182;24.308;2023-06-10T02:02:24;10.43;;;4.35;;
27839;SDS011;15207;42.182;24.308;2023-06-10T02:04:50;7.75;;;4.65;;
27839;SDS011;15207;42.182;24.308;2023-06-10T02:07:15;10.20;;;4.70;;
27839;SDS011;15207;42.182;24.308;2023-06-10T02:09:41;7.55;;;4.75;;
27839;SDS011;15207;42.182;24.308;2023-06-10T02:12:06;8.50;;;5.00;;
27839;SDS011;15207;42.182;24.308;2023-06-10T02:14:32;7.53;;;4.78;;
27839;SDS011;15207;42.182;24.308;2023-06-10T02:16:58;7.40;;;4.90;;
27839;SDS011;15207;42.182;24.308;2023-06-10T02:19:24;6.72;;;4.50;;
27839;SDS011;15207;42.182;24.308;2023-06-10T02:21:51;9.00;;;4.35;;
27839;SDS011;15207;42.182;24.308;2023-06-10T02:24:17;9.30;;;4.05;;
27839;SDS011;15207;42.182;24.308;2023-06-10T02:26:43;8.38;;;4.50;;
27839;SDS011;15207;42.182;24.308;2023-06-10T02:31:34;6.93;;;4.47;;
27839;SDS011;15207;42.182;24.308;2023-06-10T02:34:03;5.50;;;4.05;;
27839;SDS011;15207;42.182;24.308;2023-06-10T02:36:29;6.00;;;3.63;;
27839;SDS011;15207;42.182;24.308;2023-06-10T02:38:54;6.97;;;4.03;;
27839;SDS011;15207;42.182;24.308;2023-06-10T02:41:20;8.80;;;3.80;;
27839;SDS011;15207;42.182;24.308;2023-06-10T02:43:47;6.07;;;3.67;;
27839;SDS011;15207;42.182;24.308;2023-06-10T02:46:12;5.65;;;4.30;;
27839;SDS011;15207;42.182;24.308;2023-06-10T02:48:42;6.15;;;4.05;;
27839;SDS011;15207;42.182;24.308;2023-06-10T02:51:09;8.43;;;4.25;;
27839;SDS011;15207;42.182;24.308;2023-06-10T02:53:35;5.88;;;4.05;;
27839;SDS011;15207;42.182;24.308;2023-06-10T02:56:01;5.47;;;4.25;;
27839;SDS011;15207;42.182;24.308;2023-06-10T02:58:27;7.40;;;4.90;;
27839;SDS011;15207;42.182;24.308;2023-06-10T03:00:52;8.55;;;5.10;;
27839;SDS011;15207;42.182;24.308;2023-06-10T03:05:44;7.45;;;5.10;;
27839;SDS011;15207;42.182;24.308;2023-06-10T03:08:10;6.50;;;4.30;;
27839;SDS011;15207;42.182;24.308;2023-06-10T03:10:35;10.65;;;5.15;;
27839;SDS011;15207;42.182;24.308;2023-06-10T03:13:01;6.15;;;4.10;;
27839;SDS011;15207;42.182;24.308;2023-06-10T03:20:19;6.40;;;4.30;;
27839;SDS011;15207;42.182;24.308;2023-06-10T03:22:46;8.95;;;4.10;;
27839;SDS011;15207;42.182;24.308;2023-06-10T03:25:12;6.00;;;4.30;;
27839;SDS011;15207;42.182;24.308;2023-06-10T03:27:42;7.00;;;4.60;;
27839;SDS011;15207;42.182;24.308;2023-06-10T03:30:08;9.10;;;5.10;;
27839;SDS011;15207;42.182;24.308;2023-06-10T03:32:34;7.10;;;4.40;;
27839;SDS011;15207;42.182;24.308;2023-06-10T03:37:28;7.85;;;4.65;;
27839;SDS011;15207;42.182;24.308;2023-06-10T03:39:53;9.05;;;4.90;;
27839;SDS011;15207;42.182;24.308;2023-06-10T03:44:45;8.85;;;3.90;;
27839;SDS011;15207;42.182;24.308;2023-06-10T03:47:10;8.60;;;4.40;;
27839;SDS011;15207;42.182;24.308;2023-06-10T03:49:38;9.50;;;4.50;;
27839;SDS011;15207;42.182;24.308;2023-06-10T03:52:05;6.40;;;4.70;;
27839;SDS011;15207;42.182;24.308;2023-06-10T03:54:31;8.10;;;4.60;;
27839;SDS011;15207;42.182;24.308;2023-06-10T03:56:59;7.65;;;5.03;;
27839;SDS011;15207;42.182;24.308;2023-06-10T03:59:25;6.65;;;4.47;;
27839;SDS011;15207;42.182;24.308;2023-06-10T04:01:50;8.65;;;4.40;;
27839;SDS011;15207;42.182;24.308;2023-06-10T04:04:16;6.40;;;4.65;;
27839;SDS011;15207;42.182;24.308;2023-06-10T04:06:42;6.40;;;4.20;;
27839;SDS011;15207;42.182;24.308;2023-06-10T04:09:09;7.50;;;4.30;;
27839;SDS011;15207;42.182;24.308;2023-06-10T04:11:35;6.90;;;4.55;;
27839;SDS011;15207;42.182;24.308;2023-06-10T04:14:01;6.60;;;4.90;;
27839;SDS011;15207;42.182;24.308;2023-06-10T04:16:27;7.60;;;4.50;;
27839;SDS011;15207;42.182;24.308;2023-06-10T04:18:53;7.15;;;4.15;;
27839;SDS011;15207;42.182;24.308;2023-06-10T04:21:18;8.57;;;4.55;;
27839;SDS011;15207;42.182;24.308;2023-06-10T04:23:44;7.70;;;4.95;;
27839;SDS011;15207;42.182;24.308;2023-06-10T04:26:11;9.88;;;4.32;;
27839;SDS011;15207;42.182;24.308;2023-06-10T04:28:37;4.75;;;4.15;;
27839;SDS011;15207;42.182;24.308;2023-06-10T04:31:03;6.40;;;4.75;;
27839;SDS011;15207;42.182;24.308;2023-06-10T04:33:29;6.30;;;4.10;;
27839;SDS011;15207;42.182;24.308;2023-06-10T04:35:55;8.00;;;4.65;;
27839;SDS011;15207;42.182;24.308;2023-06-10T04:38:20;8.55;;;4.78;;
27839;SDS011;15207;42.182;24.308;2023-06-10T04:40:46;9.75;;;4.80;;
27839;SDS011;15207;42.182;24.308;2023-06-10T04:43:13;6.30;;;4.80;;
27839;SDS011;15207;42.182;24.308;2023-06-10T04:45:38;8.05;;;4.60;;
27839;SDS011;15207;42.182;24.308;2023-06-10T04:48:05;9.82;;;5.10;;
27839;SDS011;15207;42.182;24.308;2023-06-10T04:50:31;7.90;;;4.95;;
27839;SDS011;15207;42.182;24.308;2023-06-10T04:52:58;8.70;;;4.40;;
27839;SDS011;15207;42.182;24.308;2023-06-10T04:55:24;5.40;;;4.25;;
27839;SDS011;15207;42.182;24.308;2023-06-10T04:57:50;6.90;;;4.75;;
27839;SDS011;15207;42.182;24.308;2023-06-10T05:00:16;7.30;;;4.40;;
27839;SDS011;15207;42.182;24.308;2023-06-10T05:02:42;6.60;;;4.22;;
27839;SDS011;15207;42.182;24.308;2023-06-10T05:05:09;8.25;;;4.80;;
27839;SDS011;15207;42.182;24.308;2023-06-10T05:07:36;5.60;;;4.10;;
27839;SDS011;15207;42.182;24.308;2023-06-10T05:10:01;10.60;;;4.40;;
27839;SDS011;15207;42.182;24.308;2023-06-10T05:12:28;7.25;;;4.55;;
27839;SDS011;15207;42.182;24.308;2023-06-10T05:14:54;4.30;;;3.50;;
27839;SDS011;15207;42.182;24.308;2023-06-10T05:17:20;5.30;;;3.90;;
27839;SDS011;15207;42.182;24.308;2023-06-10T05:19:45;6.65;;;4.40;;
27839;SDS011;15207;42.182;24.308;2023-06-10T05:22:12;5.40;;;4.00;;
27839;SDS011;15207;42.182;24.308;2023-06-10T05:24:38;5.20;;;4.30;;
27839;SDS011;15207;42.182;24.308;2023-06-10T05:27:04;9.07;;;4.27;;
27839;SDS011;15207;42.182;24.308;2023-06-10T05:29:33;11.03;;;4.53;;
27839;SDS011;15207;42.182;24.308;2023-06-10T05:31:58;5.47;;;4.00;;
27839;SDS011;15207;42.182;24.308;2023-06-10T05:34:27;6.30;;;4.30;;
27839;SDS011;15207;42.182;24.308;2023-06-10T05:36:55;7.50;;;4.50;;
27839;SDS011;15207;42.182;24.308;2023-06-10T05:39:21;5.90;;;4.10;;
27839;SDS011;15207;42.182;24.308;2023-06-10T05:41:46;7.60;;;4.60;;
27839;SDS011;15207;42.182;24.308;2023-06-10T05:44:12;13.80;;;4.80;;
27839;SDS011;15207;42.182;24.308;2023-06-10T05:46:38;7.50;;;4.20;;
27839;SDS011;15207;42.182;24.308;2023-06-10T05:49:04;8.75;;;5.90;;
27839;SDS011;15207;42.182;24.308;2023-06-10T05:51:29;9.45;;;5.25;;
27839;SDS011;15207;42.182;24.308;2023-06-10T05:53:54;6.50;;;5.30;;
27839;SDS011;15207;42.182;24.308;2023-06-10T05:56:20;11.30;;;6.00;;
27839;SDS011;15207;42.182;24.308;2023-06-10T05:58:49;8.50;;;5.25;;
27839;SDS011;15207;42.182;24.308;2023-06-10T06:01:16;8.25;;;5.15;;
27839;SDS011;15207;42.182;24.308;2023-06-10T06:03:42;8.05;;;4.75;;
27839;SDS011;15207;42.182;24.308;2023-06-10T06:08:33;6.95;;;4.95;;
27839;SDS011;15207;42.182;24.308;2023-06-10T06:13:24;7.45;;;4.80;;
27839;SDS011;15207;42.182;24.308;2023-06-10T06:15:50;7.97;;;4.63;;
27839;SDS011;15207;42.182;24.308;2023-06-10T06:18:15;6.15;;;4.65;;
27839;SDS011;15207;42.182;24.308;2023-06-10T06:20:41;6.85;;;4.00;;
27839;SDS011;15207;42.182;24.308;2023-06-10T06:23:08;8.35;;;4.55;;
27839;SDS011;15207;42.182;24.308;2023-06-10T06:25:36;6.05;;;3.92;;
27839;SDS011;15207;42.182;24.308;2023-06-10T06:28:05;5.83;;;4.20;;
27839;SDS011;15207;42.182;24.308;2023-06-10T06:30:32;7.80;;;4.40;;
27839;SDS011;15207;42.182;24.308;2023-06-10T06:32:57;5.75;;;4.10;;
27839;SDS011;15207;42.182;24.308;2023-06-10T06:35:23;6.70;;;3.50;;
27839;SDS011;15207;42.182;24.308;2023-06-10T06:37:52;6.30;;;3.10;;
27839;SDS011;15207;42.182;24.308;2023-06-10T06:40:20;5.70;;;3.30;;
27839;SDS011;15207;42.182;24.308;2023-06-10T06:42:45;5.65;;;3.20;;
27839;SDS011;15207;42.182;24.308;2023-06-10T06:45:11;7.65;;;3.25;;
27839;SDS011;15207;42.182;24.308;2023-06-10T06:47:37;4.93;;;3.07;;
27839;SDS011;15207;42.182;24.308;2023-06-10T06:50:02;4.45;;;2.90;;
27839;SDS011;15207;42.182;24.308;2023-06-10T06:52:28;4.10;;;2.90;;
27839;SDS011;15207;42.182;24.308;2023-06-10T06:54:54;6.20;;;2.90;;
27839;SDS011;15207;42.182;24.308;2023-06-10T06:57:19;4.47;;;2.88;;
27839;SDS011;15207;42.182;24.308;2023-06-10T06:59:45;7.32;;;3.17;;
27839;SDS011;15207;42.182;24.308;2023-06-10T07:02:11;7.55;;;3.30;;
27839;SDS011;15207;42.182;24.308;2023-06-10T07:04:36;3.47;;;3.17;;
27839;SDS011;15207;42.182;24.308;2023-06-10T07:07:02;4.50;;;3.60;;
27839;SDS011;15207;42.182;24.308;2023-06-10T07:11:53;6.60;;;3.30;;
27839;SDS011;15207;42.182;24.308;2023-06-10T07:14:18;5.30;;;3.50;;
27839;SDS011;15207;42.182;24.308;2023-06-10T07:16:45;3.75;;;3.05;;
27839;SDS011;15207;42.182;24.308;2023-06-10T07:19:11;6.25;;;4.00;;
27839;SDS011;15207;42.182;24.308;2023-06-10T07:21:36;4.30;;;3.30;;
27839;SDS011;15207;42.182;24.308;2023-06-10T07:24:03;3.80;;;3.10;;
27839;SDS011;15207;42.182;24.308;2023-06-10T07:26:29;5.35;;;3.10;;
27839;SDS011;15207;42.182;24.308;2023-06-10T07:28:55;3.90;;;2.95;;
27839;SDS011;15207;42.182;24.308;2023-06-10T07:31:22;5.40;;;3.10;;
27839;SDS011;15207;42.182;24.308;2023-06-10T07:36:14;4.25;;;3.20;;
27839;SDS011;15207;42.182;24.308;2023-06-10T07:38:42;3.25;;;2.60;;
27839;SDS011;15207;42.182;24.308;2023-06-10T07:41:08;4.90;;;2.80;;
27839;SDS011;15207;42.182;24.308;2023-06-10T07:43:36;3.58;;;2.70;;
27839;SDS011;15207;42.182;24.308;2023-06-10T07:46:02;3.50;;;2.80;;
27839;SDS011;15207;42.182;24.308;2023-06-10T07:48:28;3.90;;;3.50;;
27839;SDS011;15207;42.182;24.308;2023-06-10T07:50:54;5.20;;;3.40;;
27839;SDS011;15207;42.182;24.308;2023-06-10T07:53:20;5.40;;;2.75;;
27839;SDS011;15207;42.182;24.308;2023-06-10T07:55:45;4.20;;;2.60;;
27839;SDS011;15207;42.182;24.308;2023-06-10T07:58:11;4.35;;;2.70;;
27839;SDS011;15207;42.182;24.308;2023-06-10T08:00:36;4.60;;;2.95;;
27839;SDS011;15207;42.182;24.308;2023-06-10T08:03:02;4.80;;;2.80;;
27839;SDS011;15207;42.182;24.308;2023-06-10T08:05:28;3.60;;;2.80;;
27839;SDS011;15207;42.182;24.308;2023-06-10T08:07:54;7.60;;;2.80;;
27839;SDS011;15207;42.182;24.308;2023-06-10T08:10:20;5.00;;;2.90;;
27839;SDS011;15207;42.182;24.308;2023-06-10T08:12:46;3.70;;;2.40;;
27839;SDS011;15207;42.182;24.308;2023-06-10T08:15:12;4.05;;;2.90;;
27839;SDS011;15207;42.182;24.308;2023-06-10T08:17:39;3.30;;;2.70;;
27839;SDS011;15207;42.182;24.308;2023-06-10T08:20:05;5.10;;;2.95;;
27839;SDS011;15207;42.182;24.308;2023-06-10T08:22:32;3.90;;;2.80;;
27839;SDS011;15207;42.182;24.308;2023-06-10T08:24:58;7.20;;;2.90;;
27839;SDS011;15207;42.182;24.308;2023-06-10T08:27:24;6.63;;;3.20;;
27839;SDS011;15207;42.182;24.308;2023-06-10T08:29:50;4.25;;;2.45;;
27839;SDS011;15207;42.182;24.308;2023-06-10T08:32:16;4.25;;;2.40;;
27839;SDS011;15207;42.182;24.308;2023-06-10T08:37:07;2.40;;;2.10;;
27839;SDS011;15207;42.182;24.308;2023-06-10T08:39:33;6.30;;;2.87;;
27839;SDS011;15207;42.182;24.308;2023-06-10T08:44:47;3.50;;;2.80;;
27839;SDS011;15207;42.182;24.308;2023-06-10T08:47:17;4.50;;;2.90;;
27839;SDS011;15207;42.182;24.308;2023-06-10T08:49:45;4.10;;;2.45;;
27839;SDS011;15207;42.182;24.308;2023-06-10T08:52:16;4.80;;;2.60;;
27839;SDS011;15207;42.182;24.308;2023-06-10T08:54:45;3.90;;;3.00;;
27839;SDS011;15207;42.182;24.308;2023-06-10T08:57:17;4.20;;;2.60;;
27839;SDS011;15207;42.182;24.308;2023-06-10T08:59:45;3.50;;;2.75;;
27839;SDS011;15207;42.182;24.308;2023-06-10T09:02:11;6.25;;;2.40;;
27839;SDS011;15207;42.182;24.308;2023-06-10T09:04:39;3.90;;;2.10;;
27839;SDS011;15207;42.182;24.308;2023-06-10T09:07:09;6.30;;;2.60;;
27839;SDS011;15207;42.182;24.308;2023-06-10T09:09:36;2.90;;;2.40;;
27839;SDS011;15207;42.182;24.308;2023-06-10T09:12:02;4.15;;;2.45;;
27839;SDS011;15207;42.182;24.308;2023-06-10T09:14:28;3.30;;;2.15;;
27839;SDS011;15207;42.182;24.308;2023-06-10T09:16:54;4.45;;;2.70;;
27839;SDS011;15207;42.182;24.308;2023-06-10T09:19:23;4.20;;;2.80;;
27839;SDS011;15207;42.182;24.308;2023-06-10T09:21:50;4.35;;;2.65;;
27839;SDS011;15207;42.182;24.308;2023-06-10T09:24:16;6.13;;;2.77;;
27839;SDS011;15207;42.182;24.308;2023-06-10T09:26:42;5.15;;;2.80;;
27839;SDS011;15207;42.182;24.308;2023-06-10T09:29:09;3.60;;;2.30;;
27839;SDS011;15207;42.182;24.308;2023-06-10T09:31:38;4.30;;;2.35;;
27839;SDS011;15207;42.182;24.308;2023-06-10T09:34:07;6.00;;;3.50;;
27839;SDS011;15207;42.182;24.308;2023-06-10T09:36:35;3.85;;;2.75;;
27839;SDS011;15207;42.182;24.308;2023-06-10T09:39:02;4.45;;;2.35;;
27839;SDS011;15207;42.182;24.308;2023-06-10T09:41:35;4.20;;;2.30;;
27839;SDS011;15207;42.182;24.308;2023-06-10T09:44:18;4.15;;;2.60;;
27839;SDS011;15207;42.182;24.308;2023-06-10T09:46:46;4.05;;;2.60;;
27839;SDS011;15207;42.182;24.308;2023-06-10T09:49:13;3.95;;;2.80;;
27839;SDS011;15207;42.182;24.308;2023-06-10T09:51:48;5.97;;;2.60;;
27839;SDS011;15207;42.182;24.308;2023-06-10T09:54:19;8.75;;;2.80;;
27839;SDS011;15207;42.182;24.308;2023-06-10T09:56:48;4.10;;;2.30;;
27839;SDS011;15207;42.182;24.308;2023-06-10T09:59:15;4.35;;;2.40;;
27839;SDS011;15207;42.182;24.308;2023-06-10T10:01:41;5.32;;;2.85;;
27839;SDS011;15207;42.182;24.308;2023-06-10T10:04:07;5.45;;;2.60;;
27839;SDS011;15207;42.182;24.308;2023-06-10T10:06:33;4.15;;;2.55;;
27839;SDS011;15207;42.182;24.308;2023-06-10T10:08:59;3.80;;;2.73;;
27839;SDS011;15207;42.182;24.308;2023-06-10T10:11:25;5.00;;;2.70;;
27839;SDS011;15207;42.182;24.308;2023-06-10T10:13:52;6.60;;;2.60;;
27839;SDS011;15207;42.182;24.308;2023-06-10T10:16:30;3.80;;;2.80;;
27839;SDS011;15207;42.182;24.308;2023-06-10T10:19:12;4.00;;;2.80;;
27839;SDS011;15207;42.182;24.308;2023-06-10T10:21:56;3.65;;;2.50;;
27839;SDS011;15207;42.182;24.308;2023-06-10T10:27:05;4.67;;;2.70;;
27839;SDS011;15207;42.182;24.308;2023-06-10T10:29:39;3.60;;;2.55;;
27839;SDS011;15207;42.182;24.308;2023-06-10T10:32:07;5.10;;;3.25;;
27839;SDS011;15207;42.182;24.308;2023-06-10T10:34:37;4.50;;;3.60;;
27839;SDS011;15207;42.182;24.308;2023-06-10T10:37:31;4.70;;;3.20;;
27839;SDS011;15207;42.182;24.308;2023-06-10T10:39:58;4.60;;;3.00;;
27839;SDS011;15207;42.182;24.308;2023-06-10T10:42:28;2.60;;;2.40;;
27839;SDS011;15207;42.182;24.308;2023-06-10T10:44:55;3.95;;;2.75;;
27839;SDS011;15207;42.182;24.308;2023-06-10T10:47:22;6.00;;;2.73;;
27839;SDS011;15207;42.182;24.308;2023-06-10T10:49:48;4.45;;;2.85;;
27839;SDS011;15207;42.182;24.308;2023-06-10T10:54:52;4.55;;;2.95;;
27839;SDS011;15207;42.182;24.308;2023-06-10T10:57:21;3.50;;;2.30;;
27839;SDS011;15207;42.182;24.308;2023-06-10T10:59:56;5.40;;;2.70;;
27839;SDS011;15207;42.182;24.308;2023-06-10T11:02:34;3.45;;;2.60;;
27839;SDS011;15207;42.182;24.308;2023-06-10T11:05:01;3.43;;;2.80;;
27839;SDS011;15207;42.182;24.308;2023-06-10T11:07:31;4.40;;;2.80;;
27839;SDS011;15207;42.182;24.308;2023-06-10T11:09:58;4.40;;;2.60;;
27839;SDS011;15207;42.182;24.308;2023-06-10T11:12:25;7.63;;;2.60;;
27839;SDS011;15207;42.182;24.308;2023-06-10T11:17:20;3.40;;;2.15;;
27839;SDS011;15207;42.182;24.308;2023-06-10T11:19:46;3.45;;;2.50;;
27839;SDS011;15207;42.182;24.308;2023-06-10T11:22:18;3.10;;;2.30;;
27839;SDS011;15207;42.182;24.308;2023-06-10T11:24:50;4.90;;;2.75;;
27839;SDS011;15207;42.182;24.308;2023-06-10T11:32:37;3.60;;;2.60;;
27839;SDS011;15207;42.182;24.308;2023-06-10T11:35:04;4.60;;;2.50;;
27839;SDS011;15207;42.182;24.308;2023-06-10T11:37:32;3.30;;;2.30;;
27839;SDS011;15207;42.182;24.308;2023-06-10T11:39:58;4.70;;;2.60;;
27839;SDS011;15207;42.182;24.308;2023-06-10T11:42:24;5.30;;;2.90;;
27839;SDS011;15207;42.182;24.308;2023-06-10T11:44:50;4.65;;;2.55;;
27839;SDS011;15207;42.182;24.308;2023-06-10T11:47:18;3.42;;;2.30;;
27839;SDS011;15207;42.182;24.308;2023-06-10T11:49:45;3.70;;;2.60;;
27839;SDS011;15207;42.182;24.308;2023-06-10T11:52:27;4.00;;;2.55;;
27839;SDS011;15207;42.182;24.308;2023-06-10T11:54:54;3.50;;;2.60;;
27839;SDS011;15207;42.182;24.308;2023-06-10T11:57:20;3.85;;;2.40;;
27839;SDS011;15207;42.182;24.308;2023-06-10T11:59:46;3.90;;;2.65;;
27839;SDS011;15207;42.182;24.308;2023-06-10T12:04:44;3.40;;;2.50;;
27839;SDS011;15207;42.182;24.308;2023-06-10T12:07:16;4.40;;;2.70;;
27839;SDS011;15207;42.182;24.308;2023-06-10T12:09:52;3.65;;;2.70;;
27839;SDS011;15207;42.182;24.308;2023-06-10T12:12:24;2.97;;;2.37;;
27839;SDS011;15207;42.182;24.308;2023-06-10T12:19:47;3.10;;;2.23;;
27839;SDS011;15207;42.182;24.308;2023-06-10T12:22:13;3.70;;;2.50;;
27839;SDS011;15207;42.182;24.308;2023-06-10T12:24:45;4.95;;;2.90;;
27839;SDS011;15207;42.182;24.308;2023-06-10T12:27:22;5.20;;;2.20;;
27839;SDS011;15207;42.182;24.308;2023-06-10T12:29:51;3.30;;;2.30;;
27839;SDS011;15207;42.182;24.308;2023-06-10T12:32:20;3.60;;;2.45;;
27839;SDS011;15207;42.182;24.308;2023-06-10T12:35:01;2.65;;;2.25;;
27839;SDS011;15207;42.182;24.308;2023-06-10T12:37:29;2.80;;;2.10;;
27839;SDS011;15207;42.182;24.308;2023-06-10T12:42:22;2.90;;;2.00;;
27839;SDS011;15207;42.182;24.308;2023-06-10T12:44:52;7.10;;;2.40;;
27839;SDS011;15207;42.182;24.308;2023-06-10T12:47:19;4.00;;;2.30;;
27839;SDS011;15207;42.182;24.308;2023-06-10T12:49:45;4.30;;;2.80;;
27839;SDS011;15207;42.182;24.308;2023-06-10T12:52:10;4.13;;;2.13;;
27839;SDS011;15207;42.182;24.308;2023-06-10T12:54:36;4.10;;;2.10;;
27839;SDS011;15207;42.182;24.308;2023-06-10T12:57:02;3.10;;;1.90;;
27839;SDS011;15207;42.182;24.308;2023-06-10T12:59:28;4.90;;;2.27;;
27839;SDS011;15207;42.182;24.308;2023-06-10T13:01:54;4.20;;;2.40;;
27839;SDS011;15207;42.182;24.308;2023-06-10T13:04:20;2.70;;;2.10;;
27839;SDS011;15207;42.182;24.308;2023-06-10T13:06:47;4.33;;;2.57;;
27839;SDS011;15207;42.182;24.308;2023-06-10T13:09:14;3.70;;;1.90;;
27839;SDS011;15207;42.182;24.308;2023-06-10T13:11:40;2.50;;;1.90;;
27839;SDS011;15207;42.182;24.308;2023-06-10T13:14:07;2.73;;;1.93;;
27839;SDS011;15207;42.182;24.308;2023-06-10T13:16:33;3.27;;;2.07;;
27839;SDS011;15207;42.182;24.308;2023-06-10T13:18:59;3.10;;;2.10;;
27839;SDS011;15207;42.182;24.308;2023-06-10T13:21:26;3.30;;;1.83;;
27839;SDS011;15207;42.182;24.308;2023-06-10T13:23:52;3.23;;;2.30;;
27839;SDS011;15207;42.182;24.308;2023-06-10T13:26:17;2.40;;;1.80;;
27839;SDS011;15207;42.182;24.308;2023-06-10T13:28:43;4.30;;;2.00;;
27839;SDS011;15207;42.182;24.308;2023-06-10T13:31:09;2.70;;;1.97;;
27839;SDS011;15207;42.182;24.308;2023-06-10T13:33:35;2.50;;;1.65;;
27839;SDS011;15207;42.182;24.308;2023-06-10T13:36:01;3.00;;;1.90;;
27839;SDS011;15207;42.182;24.308;2023-06-10T13:38:27;7.03;;;2.37;;
27839;SDS011;15207;42.182;24.308;2023-06-10T13:40:54;2.05;;;1.65;;
27839;SDS011;15207;42.182;24.308;2023-06-10T13:43:19;2.95;;;1.85;;
27839;SDS011;15207;42.182;24.308;2023-06-10T13:45:45;2.80;;;2.20;;
27839;SDS011;15207;42.182;24.308;2023-06-10T13:48:11;3.60;;;1.80;;
27839;SDS011;15207;42.182;24.308;2023-06-10T13:50:37;5.00;;;2.30;;
27839;SDS011;15207;42.182;24.308;2023-06-10T13:53:03;4.90;;;1.95;;
27839;SDS011;15207;42.182;24.308;2023-06-10T13:55:28;1.90;;;1.70;;
27839;SDS011;15207;42.182;24.308;2023-06-10T13:57:54;2.90;;;2.10;;
27839;SDS011;15207;42.182;24.308;2023-06-10T14:00:22;5.05;;;1.80;;
27839;SDS011;15207;42.182;24.308;2023-06-10T14:02:48;2.70;;;2.00;;
27839;SDS011;15207;42.182;24.308;2023-06-10T14:05:13;2.60;;;1.90;;
27839;SDS011;15207;42.182;24.308;2023-06-10T14:07:39;2.10;;;1.80;;
27839;SDS011;15207;42.182;24.308;2023-06-10T14:10:06;2.50;;;1.80;;
27839;SDS011;15207;42.182;24.308;2023-06-10T14:12:33;3.20;;;1.90;;
27839;SDS011;15207;42.182;24.308;2023-06-10T14:15:00;3.50;;;2.40;;
27839;SDS011;15207;42.182;24.308;2023-06-10T14:17:25;4.30;;;2.60;;
27839;SDS011;15207;42.182;24.308;2023-06-10T14:19:51;2.60;;;1.90;;
27839;SDS011;15207;42.182;24.308;2023-06-10T14:22:16;3.60;;;1.85;;
27839;SDS011;15207;42.182;24.308;2023-06-10T14:24:42;3.20;;;1.90;;
27839;SDS011;15207;42.182;24.308;2023-06-10T14:27:08;3.70;;;2.20;;
27839;SDS011;15207;42.182;24.308;2023-06-10T14:29:34;2.95;;;2.00;;
27839;SDS011;15207;42.182;24.308;2023-06-10T14:32:00;2.60;;;1.90;;
27839;SDS011;15207;42.182;24.308;2023-06-10T14:34:26;3.00;;;2.00;;
27839;SDS011;15207;42.182;24.308;2023-06-10T14:39:25;3.22;;;2.00;;
27839;SDS011;15207;42.182;24.308;2023-06-10T14:41:50;3.78;;;1.55;;
27839;SDS011;15207;42.182;24.308;2023-06-10T14:44:18;3.75;;;1.70;;
27839;SDS011;15207;42.182;24.308;2023-06-10T14:46:43;3.15;;;1.90;;
27839;SDS011;15207;42.182;24.308;2023-06-10T14:49:10;4.70;;;2.17;;
27839;SDS011;15207;42.182;24.308;2023-06-10T14:54:01;4.50;;;2.30;;
27839;SDS011;15207;42.182;24.308;2023-06-10T14:56:26;3.17;;;2.03;;
27839;SDS011;15207;42.182;24.308;2023-06-10T14:58:52;2.55;;;1.60;;
27839;SDS011;15207;42.182;24.308;2023-06-10T15:01:17;4.07;;;1.83;;
27839;SDS011;15207;42.182;24.308;2023-06-10T15:03:43;4.90;;;2.20;;
27839;SDS011;15207;42.182;24.308;2023-06-10T15:06:09;2.23;;;1.80;;
27839;SDS011;15207;42.182;24.308;2023-06-10T15:08:35;2.70;;;1.80;;
27839;SDS011;15207;42.182;24.308;2023-06-10T15:11:00;3.50;;;2.20;;
27839;SDS011;15207;42.182;24.308;2023-06-10T15:13:27;3.25;;;2.20;;
27839;SDS011;15207;42.182;24.308;2023-06-10T15:15:53;7.80;;;2.10;;
27839;SDS011;15207;42.182;24.308;2023-06-10T15:18:18;3.27;;;2.20;;
27839;SDS011;15207;42.182;24.308;2023-06-10T15:20:44;2.70;;;2.10;;
27839;SDS011;15207;42.182;24.308;2023-06-10T15:23:10;2.30;;;1.85;;
27839;SDS011;15207;42.182;24.308;2023-06-10T15:25:35;4.00;;;2.05;;
27839;SDS011;15207;42.182;24.308;2023-06-10T15:28:01;2.30;;;1.77;;
27839;SDS011;15207;42.182;24.308;2023-06-10T15:30:26;3.45;;;2.30;;
27839;SDS011;15207;42.182;24.308;2023-06-10T15:32:52;1.70;;;1.60;;
27839;SDS011;15207;42.182;24.308;2023-06-10T15:35:18;2.70;;;1.90;;
27839;SDS011;15207;42.182;24.308;2023-06-10T15:37:44;2.90;;;2.10;;
27839;SDS011;15207;42.182;24.308;2023-06-10T15:40:10;4.30;;;1.80;;
27839;SDS011;15207;42.182;24.308;2023-06-10T15:42:36;3.40;;;2.40;;